This is the latest recevied weather packets stored in our database for station/object 9M2GDD-1. If no packets are shown the sender has not sent any weather packets the latest 10 day(s).
| Time | Temp. | Humidity | Pressure | Rain* | Wind** | Luminosity | Snow |
|---|---|---|---|---|---|---|---|
| 1787732602 | 32.22° C | 55% | 1013.1 hPa | - | - | - | - |
| 1787731702 | 32.22° C | 56% | 1013.2 hPa | - | - | - | - |
| 1787730802 | 32.22° C | 57% | 1013.4 hPa | - | - | - | - |
| 1787729902 | 31.67° C | 58% | 1013.6 hPa | - | - | - | - |
| 1787729002 | 31.67° C | 58% | 1013.8 hPa | - | - | - | - |
| 1787728101 | 31.11° C | 59% | 1014.1 hPa | - | - | - | - |
| 1787727200 | 31.67° C | 60% | 1014.6 hPa | - | - | - | - |
| 1787726299 | 31.67° C | 58% | 1014.6 hPa | - | - | - | - |
| 1787724504 | 32.78° C | 55% | 1014.7 hPa | - | - | - | - |
| 1787723604 | 31.67° C | 56% | 1015 hPa | - | - | - | - |
| 1787722704 | 31.67° C | 57% | 1015.1 hPa | - | - | - | - |
| 1787721804 | 30° C | 60% | 1015.7 hPa | - | - | - | - |
| 1787720904 | 30.56° C | 62% | 1015.8 hPa | - | - | - | - |
| 1787720004 | 30° C | 64% | 1016.1 hPa | - | - | - | - |
| 1787719104 | 29.44° C | 66% | 1016.4 hPa | - | - | - | - |
| 1787718204 | 30.56° C | 65% | 1016.7 hPa | - | - | - | - |
| 1787717304 | 30.56° C | 63% | 1016.9 hPa | - | - | - | - |
| 1787716403 | 30.56° C | 64% | 1017.2 hPa | - | - | - | - |
| 1787715503 | 30° C | 66% | 1017.6 hPa | - | - | - | - |
| 1787714603 | 29.44° C | 71% | 1017.6 hPa | - | - | - | - |
| 1787713703 | 28.89° C | 70% | 1017.5 hPa | - | - | - | - |
| 1787712803 | 28.89° C | 73% | 1017.9 hPa | - | - | - | - |
| 1787711903 | 28.33° C | 79% | 1017.6 hPa | - | - | - | - |
| 1787711003 | 28.89° C | 77% | 1017.5 hPa | - | - | - | - |
| 1787710103 | 28.89° C | 78% | 1017.2 hPa | - | - | - | - |
* Rain since midnight (hover to see other rain measurements)
** Current wind speed in m/s (hover to see current wind gust speed)